Kedves Pilóták, Oktatók, Növendékek!

Az alábbi menüpontban szeretnénk összefoglalni néhány fontos és hasznos információt, linket, amely segíthet a repülések megtervezésében.

Ha bármilyen javaslatod van a tartalommal kapcsolatban, kérlek Ez az e-mail-cím a szpemrobotok elleni védelem alatt áll. Megtekintéséhez engedélyeznie kell a JavaScript használatát.meg nekünk.

 

Jó leszállást!

Repüléssel kapcsolatos hírek

2019. október 19.

IHO.hu - - Repülés RSS

Felhőkép 

Felhőkép

Széltérkép

Széltérkép

Győr-Pér Repülőtér

Élő webkamera kép

 Nagyobb kép

Győr-Pér Repülőtér

[Source: ADDS]
METAR
LHPR 190715Z VRB02KT 0300 R30/0450N FG FEW003 08/08 Q1016 =
AMD LHPR 190644Z 1906/1915 VRB02KT 0150 FG BKN003 BECMG 1906/1909 3000 BR SCT010 SCT300 BECMG 1909/1911 18010KT CAVOK
TAF
AMD LHPR 190644Z 1906/1915 VRB02KT 0150 FG BKN003 BECMG 1906/1909 3000 BR SCT010 SCT300 BECMG 1909/1911 18010KT CAVOK =
SR / SS: 05:13 / 15:53 UTC (Napkelte / Napnyugta 2019-10-19)

Kapcsolat

Telephely:     9099 Pér, Repülõtér

Klubhelyiség: 9021 Gyõr, Városház tér 3.

E-mail: info@aeroclub-gyor.hu

Telefon: 06-20-777-9106

Adószám: 19113832-2-08

  
Joomla űrlapépítő by JoomlaShine
JSN Metro template designed by JoomlaShine.com